createdAt,value
2023-07-12T00:01:13.670Z,76.75
2023-07-12T00:03:40.438Z,76.32
2023-07-12T00:06:19.318Z,75.58
2023-07-12T00:08:46.637Z,75.25
2023-07-12T00:11:24.092Z,75.35
2023-07-12T00:13:55.758Z,76.07
2023-07-12T00:16:28.885Z,75.32
2023-07-12T00:18:57.636Z,75.05
2023-07-12T00:21:26.547Z,77.31
2023-07-12T00:23:54.884Z,76.78
2023-07-12T00:26:27.512Z,75.00
2023-07-12T00:28:55.947Z,76.70
2023-07-12T00:31:23.334Z,77.81
2023-07-12T00:33:50.315Z,78.30
2023-07-12T00:36:20.013Z,77.82
2023-07-12T00:38:46.683Z,79.07
2023-07-12T00:42:00.066Z,77.90
2023-07-12T00:44:35.497Z,78.17
2023-07-12T00:47:02.197Z,77.79
2023-07-12T00:49:28.806Z,75.76
2023-07-12T00:52:24.969Z,77.18
2023-07-12T00:55:01.427Z,75.71
2023-07-12T00:57:30.539Z,77.53
2023-07-12T01:00:06.394Z,75.48
2023-07-12T01:02:33.055Z,75.41
2023-07-12T01:05:01.500Z,76.45
2023-07-12T01:07:31.086Z,75.60
2023-07-12T01:09:57.987Z,75.86
2023-07-12T01:12:24.552Z,74.52
2023-07-12T01:14:51.136Z,77.06
2023-07-12T01:17:17.840Z,76.56
2023-07-12T01:19:44.356Z,76.33
2023-07-12T01:22:10.828Z,76.84
2023-07-12T01:24:37.624Z,78.09
2023-07-12T01:27:25.635Z,78.28
2023-07-12T01:29:53.230Z,78.84
2023-07-12T01:32:20.040Z,79.61
2023-07-12T01:34:46.805Z,80.37
2023-07-12T01:37:14.148Z,80.42
2023-07-12T01:39:40.720Z,80.52
2023-07-12T01:42:07.334Z,79.17
2023-07-12T01:44:33.819Z,80.84
2023-07-12T01:47:00.433Z,79.08
2023-07-12T01:49:26.905Z,81.04
2023-07-12T01:51:53.404Z,80.07
2023-07-12T01:54:19.909Z,81.60
2023-07-12T01:56:46.620Z,80.67
2023-07-12T01:59:13.174Z,80.99
2023-07-12T02:01:40.143Z,80.41
2023-07-12T02:04:06.815Z,79.66
2023-07-12T02:06:33.336Z,79.50
2023-07-12T02:08:59.924Z,80.02
2023-07-12T02:11:26.391Z,79.97
2023-07-12T02:13:52.896Z,79.97
2023-07-12T02:16:19.891Z,79.79
2023-07-12T02:18:46.616Z,81.26
2023-07-12T02:21:13.218Z,78.50
2023-07-12T02:23:39.926Z,81.30
2023-07-12T02:26:06.538Z,80.68
2023-07-12T02:28:33.077Z,79.35
2023-07-12T02:31:18.488Z,81.21
2023-07-12T02:33:44.953Z,81.13
2023-07-12T02:36:11.547Z,81.62
2023-07-12T02:38:38.546Z,80.96
2023-07-12T02:41:08.579Z,80.54
2023-07-12T02:43:36.663Z,80.13
2023-07-12T02:46:04.260Z,81.36
2023-07-12T02:48:30.896Z,80.83
2023-07-12T02:50:57.496Z,81.02
2023-07-12T02:53:24.098Z,81.14
2023-07-12T02:55:51.685Z,80.54
2023-07-12T02:58:19.507Z,80.43
2023-07-12T03:00:46.418Z,80.76
2023-07-12T03:03:13.226Z,81.75
2023-07-12T03:05:41.331Z,82.70
2023-07-12T03:08:08.411Z,82.98
2023-07-12T03:10:38.727Z,81.74
2023-07-12T03:13:05.399Z,81.01
2023-07-12T03:15:38.915Z,81.99
2023-07-12T03:18:06.401Z,80.57
2023-07-12T03:20:35.813Z,81.21
2023-07-12T03:23:02.428Z,81.14
2023-07-12T03:25:28.953Z,80.57
2023-07-12T03:27:55.628Z,82.21
2023-07-12T03:30:22.247Z,81.62
2023-07-12T03:32:48.895Z,82.81
2023-07-12T03:35:15.583Z,81.89
2023-07-12T03:37:42.286Z,83.21
2023-07-12T03:40:09.533Z,83.84
2023-07-12T03:42:37.265Z,83.72
2023-07-12T03:45:04.087Z,83.24
2023-07-12T03:47:30.730Z,83.86
2023-07-12T03:50:00.269Z,84.01
2023-07-12T03:52:27.095Z,84.37
2023-07-12T03:54:53.583Z,82.83
2023-07-12T03:57:24.357Z,83.55
2023-07-12T03:59:50.803Z,83.42
2023-07-12T04:02:17.301Z,83.82
2023-07-12T04:04:45.959Z,83.80
2023-07-12T04:07:12.525Z,84.22
2023-07-12T04:09:38.998Z,83.50
2023-07-12T04:12:05.752Z,84.22
2023-07-12T04:14:32.401Z,83.52
2023-07-12T04:16:58.980Z,82.67
2023-07-12T04:19:25.492Z,83.77
2023-07-12T04:21:51.925Z,83.35
2023-07-12T04:24:18.428Z,83.34
2023-07-12T04:26:44.996Z,83.93
2023-07-12T04:29:11.534Z,83.23
2023-07-12T04:31:38.427Z,83.67
2023-07-12T04:34:04.935Z,83.47
2023-07-12T04:36:31.591Z,82.55
2023-07-12T04:38:58.116Z,83.40
2023-07-12T04:41:26.180Z,83.67
2023-07-12T04:43:52.726Z,82.83
2023-07-12T04:46:22.591Z,82.43
2023-07-12T04:48:49.454Z,83.19
2023-07-12T04:51:15.988Z,82.15
2023-07-12T04:53:43.491Z,83.39
2023-07-12T04:56:09.944Z,83.08
2023-07-12T04:58:36.444Z,82.73
2023-07-12T05:01:03.580Z,82.51
2023-07-12T05:03:30.462Z,82.91
2023-07-12T05:06:09.690Z,82.63
2023-07-12T05:08:44.361Z,82.78
2023-07-12T05:11:11.192Z,83.09
2023-07-12T05:13:37.842Z,82.15
2023-07-12T05:16:05.602Z,82.78
2023-07-12T05:18:32.282Z,82.23
2023-07-12T05:20:59.233Z,82.65
2023-07-12T05:23:25.783Z,83.03
2023-07-12T05:25:54.737Z,82.30
2023-07-12T05:28:22.082Z,82.29
2023-07-12T05:30:49.553Z,81.34
2023-07-12T05:33:16.291Z,81.73
2023-07-12T05:35:42.833Z,82.37
2023-07-12T05:38:09.356Z,82.70
2023-07-12T05:40:38.276Z,82.13
2023-07-12T05:43:05.304Z,82.34
2023-07-12T05:45:31.813Z,81.52
2023-07-12T05:47:58.358Z,81.10
2023-07-12T05:50:25.805Z,81.97
2023-07-12T05:52:52.452Z,81.64
2023-07-12T05:55:19.379Z,81.08
2023-07-12T05:57:46.853Z,81.88
2023-07-12T06:00:14.286Z,80.72
2023-07-12T06:02:41.210Z,80.54
2023-07-12T06:05:08.815Z,80.51
2023-07-12T06:07:36.547Z,80.84
2023-07-12T06:10:03.134Z,79.15
2023-07-12T06:12:29.812Z,79.52
2023-07-12T06:14:56.283Z,79.23
2023-07-12T06:17:24.843Z,79.71
2023-07-12T06:19:51.403Z,79.80
2023-07-12T06:22:20.762Z,79.78
2023-07-12T06:24:47.547Z,80.33
2023-07-12T06:27:14.859Z,79.13
2023-07-12T06:29:46.854Z,78.04
2023-07-12T06:32:14.176Z,77.97
2023-07-12T06:34:40.785Z,78.29
2023-07-12T06:37:09.741Z,77.71
2023-07-12T06:39:37.825Z,77.02
2023-07-12T06:42:04.653Z,79.67
2023-07-12T06:44:31.145Z,78.25
2023-07-12T06:46:57.686Z,77.96
2023-07-12T06:49:24.319Z,77.41
2023-07-12T06:51:50.789Z,78.51
2023-07-12T06:54:18.196Z,78.15
2023-07-12T06:56:44.972Z,78.07
2023-07-12T06:59:11.964Z,77.54
2023-07-12T07:01:38.785Z,78.37
2023-07-12T07:04:06.388Z,77.98
2023-07-12T07:06:33.088Z,76.62
2023-07-12T07:08:59.585Z,76.43
2023-07-12T07:11:26.206Z,76.57
2023-07-12T07:13:52.728Z,76.12
2023-07-12T07:16:19.298Z,78.20
2023-07-12T07:18:45.933Z,77.69
2023-07-12T07:21:12.588Z,77.37
2023-07-12T07:23:39.206Z,77.13
2023-07-12T07:26:10.346Z,75.10
2023-07-12T07:28:39.988Z,76.31
2023-07-12T07:31:07.663Z,75.52
2023-07-12T07:33:34.502Z,74.56
2023-07-12T07:36:00.993Z,74.15
2023-07-12T07:38:29.143Z,75.66
2023-07-12T07:40:58.968Z,75.63
2023-07-12T07:43:25.515Z,75.95
2023-07-12T07:45:53.174Z,75.88
2023-07-12T07:48:20.262Z,75.96
2023-07-12T07:50:48.988Z,75.92
2023-07-12T07:53:15.491Z,77.04
2023-07-12T07:55:57.461Z,76.35
2023-07-12T07:58:24.330Z,77.30
2023-07-12T08:00:52.682Z,73.65
2023-07-12T08:03:20.191Z,74.65
2023-07-12T08:05:47.478Z,72.16
2023-07-12T08:08:14.248Z,71.94
2023-07-12T08:10:40.751Z,71.82
2023-07-12T08:13:09.616Z,70.48
2023-07-12T08:15:36.610Z,70.70
2023-07-12T08:18:03.543Z,71.88
2023-07-12T08:20:30.109Z,71.45
2023-07-12T08:22:56.597Z,69.73
2023-07-12T08:25:25.871Z,68.11
2023-07-12T08:27:52.477Z,67.49
2023-07-12T08:30:19.197Z,67.51
2023-07-12T08:32:45.890Z,66.04
2023-07-12T08:35:12.772Z,66.57
2023-07-12T08:37:39.420Z,67.64
2023-07-12T08:40:10.019Z,64.46
2023-07-12T08:42:40.111Z,63.64
2023-07-12T08:45:34.409Z,64.99
2023-07-12T08:48:09.405Z,64.28
2023-07-12T08:50:44.264Z,64.47
2023-07-12T08:53:20.838Z,65.87
2023-07-12T08:55:49.099Z,63.32
2023-07-12T08:58:24.296Z,64.07
2023-07-12T09:01:04.674Z,63.38
2023-07-12T09:03:32.454Z,64.94
2023-07-12T09:05:59.486Z,61.99
2023-07-12T09:08:36.958Z,64.78
2023-07-12T09:11:03.668Z,66.41
2023-07-12T09:13:38.176Z,65.48
2023-07-12T09:16:20.647Z,62.31
2023-07-12T09:18:49.914Z,65.05
2023-07-12T09:21:24.029Z,65.71
2023-07-12T09:23:53.408Z,68.26
2023-07-12T09:26:29.030Z,67.79
2023-07-12T09:29:23.442Z,66.50
2023-07-12T09:31:50.864Z,67.41
2023-07-12T09:34:38.955Z,67.62
2023-07-12T09:37:12.957Z,67.61
2023-07-12T09:39:42.550Z,66.55
2023-07-12T09:42:12.878Z,67.22
2023-07-12T09:44:39.409Z,66.66
2023-07-12T09:47:38.806Z,66.97
2023-07-12T09:50:30.403Z,68.70
2023-07-12T09:53:33.349Z,67.23
2023-07-12T09:56:34.710Z,65.16
2023-07-12T09:59:20.675Z,67.01
2023-07-12T10:01:57.784Z,69.30
2023-07-12T10:04:36.896Z,68.16
2023-07-12T10:07:29.652Z,64.65
2023-07-12T10:09:57.536Z,64.69
2023-07-12T10:12:45.471Z,64.04
2023-07-12T10:15:15.068Z,63.15
2023-07-12T10:17:45.820Z,63.91
2023-07-12T10:20:24.650Z,60.17
2023-07-12T10:22:54.152Z,62.41
2023-07-12T10:25:35.882Z,61.48
2023-07-12T10:28:18.108Z,62.08
2023-07-12T10:30:49.398Z,61.50
2023-07-12T10:33:28.294Z,60.04
2023-07-12T10:36:02.624Z,56.54
2023-07-12T10:38:29.943Z,59.65
2023-07-12T10:41:13.711Z,59.52
2023-07-12T10:43:50.815Z,59.00
2023-07-12T10:46:36.772Z,58.84
2023-07-12T10:49:13.885Z,57.53
2023-07-12T10:51:45.739Z,59.83
2023-07-12T10:54:30.933Z,58.75
2023-07-12T10:57:06.821Z,59.42
2023-07-12T10:59:40.734Z,56.54
2023-07-12T11:02:07.260Z,56.17
2023-07-12T11:04:39.422Z,56.33
2023-07-12T11:07:31.107Z,59.08
2023-07-12T11:10:17.866Z,58.53
2023-07-12T11:12:51.572Z,61.58
2023-07-12T11:15:28.354Z,60.19
2023-07-12T11:18:04.423Z,57.58
2023-07-12T11:20:36.657Z,56.62
2023-07-12T11:23:06.012Z,53.12
2023-07-12T11:25:50.870Z,53.77
2023-07-12T11:28:38.949Z,54.00
2023-07-12T11:31:26.296Z,57.46
2023-07-12T11:34:28.480Z,55.51
2023-07-12T11:37:03.460Z,54.96
2023-07-12T11:39:30.628Z,50.81
2023-07-12T11:42:10.058Z,51.89
2023-07-12T11:44:38.787Z,53.84
2023-07-12T11:47:05.823Z,53.42
2023-07-12T11:49:32.481Z,54.56
2023-07-12T11:52:05.636Z,53.89
2023-07-12T11:54:32.302Z,53.04
2023-07-12T11:57:00.233Z,52.71
2023-07-12T11:59:40.555Z,52.57
2023-07-12T12:02:15.214Z,52.35
2023-07-12T12:04:42.111Z,54.97
2023-07-12T12:07:28.273Z,53.11
2023-07-12T12:10:00.362Z,50.65
2023-07-12T12:12:32.071Z,50.86
2023-07-12T12:14:59.636Z,48.81
2023-07-12T12:17:31.481Z,52.16
2023-07-12T12:20:20.183Z,49.66
2023-07-12T12:25:30.631Z,50.39
2023-07-12T12:27:58.320Z,50.45
2023-07-12T12:30:30.399Z,51.67
2023-07-12T12:33:31.375Z,48.66
2023-07-12T12:36:04.732Z,46.64
2023-07-12T12:38:36.630Z,47.30
2023-07-12T12:41:21.848Z,46.91
2023-07-12T12:44:07.461Z,47.62
2023-07-12T12:51:01.563Z,48.78
2023-07-12T12:54:24.585Z,50.02
2023-07-12T13:21:54.822Z,48.48
2023-07-12T13:24:21.365Z,48.67
2023-07-12T13:26:47.908Z,50.50
2023-07-12T13:29:20.268Z,50.04
2023-07-12T13:31:47.051Z,48.63
2023-07-12T13:34:15.727Z,44.33
2023-07-12T13:36:48.982Z,44.82
2023-07-12T13:46:49.558Z,42.47
2023-07-12T13:49:18.171Z,39.96
2023-07-12T13:51:46.963Z,40.34
2023-07-12T13:54:16.558Z,40.77
2023-07-12T13:56:47.393Z,41.95
2023-07-12T14:01:48.647Z,42.64
2023-07-12T14:04:35.797Z,41.27
2023-07-12T14:07:18.291Z,40.79
2023-07-12T14:10:14.387Z,42.10
2023-07-12T14:12:45.662Z,39.03
2023-07-12T14:15:18.552Z,40.50
2023-07-12T14:17:45.186Z,40.29
2023-07-12T14:20:12.158Z,38.37
2023-07-12T14:22:38.956Z,39.25
2023-07-12T14:25:17.786Z,41.66
2023-07-12T14:27:47.819Z,39.36
2023-07-12T14:32:46.048Z,37.88
2023-07-12T14:35:20.315Z,38.81
2023-07-12T14:37:57.621Z,38.76
2023-07-12T14:40:27.821Z,40.91
2023-07-12T14:42:55.855Z,41.20
2023-07-12T14:45:37.569Z,42.83
2023-07-12T14:48:06.629Z,42.71
2023-07-12T14:50:33.239Z,41.95
2023-07-12T14:53:00.009Z,40.11
2023-07-12T14:55:26.701Z,41.35
2023-07-12T14:58:13.770Z,40.29
2023-07-12T15:00:44.611Z,38.37
2023-07-12T15:03:25.298Z,40.10
2023-07-12T15:05:56.663Z,41.77
2023-07-12T15:08:30.277Z,38.86
2023-07-12T15:10:58.909Z,40.02
2023-07-12T15:21:38.078Z,38.74
2023-07-12T15:24:04.822Z,38.09
2023-07-12T15:26:31.308Z,38.78
2023-07-12T15:28:57.769Z,38.89
2023-07-12T15:31:29.909Z,37.48
2023-07-12T15:33:58.144Z,36.84
2023-07-12T15:36:26.904Z,36.00
2023-07-12T15:38:59.871Z,37.51
2023-07-12T15:41:29.162Z,39.42
2023-07-12T15:44:05.993Z,39.28
2023-07-12T15:46:33.855Z,39.20
2023-07-12T15:49:01.258Z,37.10
2023-07-12T15:51:40.745Z,37.39
2023-07-12T15:56:41.386Z,38.56
2023-07-12T15:59:13.670Z,39.41
2023-07-12T16:01:40.404Z,38.27
2023-07-12T16:04:07.038Z,36.70
2023-07-12T16:06:33.734Z,36.16
2023-07-12T16:09:00.285Z,38.00
2023-07-12T16:11:35.564Z,37.77
2023-07-12T16:14:33.294Z,37.59
2023-07-12T16:19:35.088Z,39.21
2023-07-12T16:22:01.905Z,40.43
2023-07-12T16:24:28.534Z,40.48
2023-07-12T16:26:55.517Z,40.26
2023-07-12T16:29:22.180Z,39.19
2023-07-12T16:31:54.075Z,41.02
2023-07-12T16:34:25.310Z,40.72
2023-07-12T16:36:55.535Z,38.91
2023-07-12T16:39:22.913Z,40.51
2023-07-12T16:41:49.675Z,40.96
2023-07-12T16:44:26.825Z,40.99
2023-07-12T16:46:54.683Z,41.17
2023-07-12T16:49:21.479Z,43.08
2023-07-12T16:51:59.731Z,39.85
2023-07-12T16:54:30.783Z,43.33
2023-07-12T16:56:58.502Z,42.32
2023-07-12T16:59:29.392Z,41.24
2023-07-12T17:01:57.394Z,40.79
2023-07-12T17:04:25.302Z,40.63
2023-07-12T17:06:52.475Z,39.69
2023-07-12T17:09:25.264Z,41.87
2023-07-12T17:12:30.483Z,41.96
2023-07-12T17:14:57.021Z,43.61
2023-07-12T17:17:23.804Z,44.09
2023-07-12T17:19:50.737Z,43.09
2023-07-12T17:22:19.172Z,43.63
2023-07-12T17:24:47.296Z,42.41
2023-07-12T17:27:17.411Z,43.55
2023-07-12T17:29:44.873Z,45.15
2023-07-12T17:32:18.224Z,45.53
2023-07-12T17:34:45.111Z,44.17
2023-07-12T17:37:20.558Z,46.29
2023-07-12T17:39:58.765Z,46.18
2023-07-12T17:42:29.921Z,45.47
2023-07-12T17:45:02.034Z,45.08
2023-07-12T17:47:30.187Z,44.33
2023-07-12T17:49:57.326Z,44.57
2023-07-12T17:52:26.856Z,44.00
2023-07-12T17:54:53.476Z,44.53
2023-07-12T17:57:23.430Z,44.51
2023-07-12T17:59:52.524Z,46.84
2023-07-12T18:02:26.572Z,45.25
2023-07-12T18:04:53.264Z,45.60
2023-07-12T18:07:25.005Z,48.20
2023-07-12T18:09:53.588Z,47.10
2023-07-12T18:12:22.431Z,48.28
2023-07-12T18:14:50.770Z,48.74
2023-07-12T18:17:22.201Z,49.57
2023-07-12T18:19:49.642Z,48.70
2023-07-12T18:22:21.468Z,46.97
2023-07-12T18:24:49.105Z,50.08
2023-07-12T18:27:21.267Z,50.02
2023-07-12T18:29:48.296Z,48.41
2023-07-12T18:32:19.479Z,48.51
2023-07-12T18:34:51.532Z,49.01
2023-07-12T18:37:21.770Z,49.63
2023-07-12T18:39:53.810Z,49.59
2023-07-12T18:42:26.976Z,50.32
2023-07-12T18:44:54.754Z,49.62
2023-07-12T18:47:22.977Z,51.04
2023-07-12T18:49:51.904Z,49.68
2023-07-12T18:52:21.967Z,51.60
2023-07-12T18:54:50.264Z,51.15
2023-07-12T18:57:19.163Z,49.13
2023-07-12T18:59:47.982Z,51.61
2023-07-12T19:02:18.473Z,50.66
2023-07-12T19:04:45.731Z,49.69
2023-07-12T19:07:17.948Z,48.58
2023-07-12T19:09:44.661Z,51.39
2023-07-12T19:12:14.293Z,51.11
2023-07-12T19:14:41.343Z,51.38
2023-07-12T19:17:12.232Z,50.81
2023-07-12T19:19:39.277Z,51.99
2023-07-12T19:22:07.335Z,50.01
2023-07-12T19:24:33.852Z,51.95
2023-07-12T19:27:04.508Z,51.99
2023-07-12T19:29:36.726Z,52.24
2023-07-12T19:32:10.032Z,51.55
2023-07-12T19:34:36.956Z,52.49
2023-07-12T19:37:03.706Z,50.96
2023-07-12T19:39:30.974Z,52.22
2023-07-12T19:41:58.738Z,51.64
2023-07-12T19:44:25.372Z,51.77
2023-07-12T19:46:52.942Z,51.63
2023-07-12T19:49:19.576Z,52.50
2023-07-12T19:51:47.855Z,51.81
2023-07-12T19:54:16.331Z,50.62
2023-07-12T19:56:43.246Z,51.05
2023-07-12T19:59:10.466Z,51.68
2023-07-12T20:01:37.324Z,52.52
2023-07-12T20:04:07.297Z,53.28
2023-07-12T20:06:36.009Z,54.70
2023-07-12T20:09:02.818Z,52.55
2023-07-12T20:11:29.730Z,54.48
2023-07-12T20:13:56.703Z,54.36
2023-07-12T20:16:27.229Z,55.39
2023-07-12T20:18:54.972Z,55.54
2023-07-12T20:21:22.156Z,55.53
2023-07-12T20:23:49.611Z,55.17
2023-07-12T20:26:17.911Z,55.77
2023-07-12T20:28:44.802Z,56.73
2023-07-12T20:31:14.163Z,58.72
2023-07-12T20:33:42.195Z,57.42
2023-07-12T20:36:10.124Z,58.00
2023-07-12T20:38:37.093Z,58.81
2023-07-12T20:41:04.153Z,58.82
2023-07-12T20:43:30.862Z,60.08
2023-07-12T20:46:02.371Z,59.66
2023-07-12T20:48:33.562Z,61.01
2023-07-12T20:54:47.959Z,61.27
2023-07-12T20:57:14.926Z,63.06
2023-07-12T20:59:41.697Z,62.18
2023-07-12T21:02:10.276Z,62.57
2023-07-12T21:04:40.221Z,62.05
2023-07-12T21:07:06.845Z,62.50
2023-07-12T21:09:33.621Z,62.46
2023-07-12T21:12:00.334Z,62.13
2023-07-12T21:14:27.043Z,62.15
2023-07-12T21:16:53.623Z,61.97
2023-07-12T21:19:23.847Z,63.01
2023-07-12T21:21:50.371Z,62.81
2023-07-12T21:24:16.874Z,62.35
2023-07-12T21:26:43.578Z,63.75
2023-07-12T21:29:10.089Z,63.59
2023-07-12T21:31:37.177Z,64.05
2023-07-12T21:34:03.789Z,63.49
2023-07-12T21:36:30.344Z,63.75
2023-07-12T21:38:56.888Z,64.15
2023-07-12T21:41:23.422Z,64.59
2023-07-12T21:43:50.273Z,64.54
2023-07-12T21:46:16.872Z,64.74
2023-07-12T21:48:43.532Z,64.77
2023-07-12T21:51:10.197Z,65.21
2023-07-12T21:53:36.794Z,64.24
2023-07-12T21:56:03.586Z,64.96
2023-07-12T21:58:30.420Z,65.42
2023-07-12T22:00:59.432Z,65.92
2023-07-12T22:03:26.239Z,66.46
2023-07-12T22:05:53.086Z,66.78
2023-07-12T22:08:19.656Z,65.67
2023-07-12T22:10:46.889Z,66.42
2023-07-12T22:13:13.415Z,67.85
2023-07-12T22:15:40.117Z,66.87
2023-07-12T22:18:06.978Z,67.18
2023-07-12T22:20:34.127Z,66.63
2023-07-12T22:23:00.941Z,67.60
2023-07-12T22:25:27.728Z,68.14
2023-07-12T22:27:54.794Z,67.94
2023-07-12T22:30:33.809Z,67.68
2023-07-12T22:33:01.177Z,67.06
2023-07-12T22:35:29.044Z,68.88
2023-07-12T22:37:58.653Z,68.93
2023-07-12T22:40:27.079Z,69.47
2023-07-12T22:42:53.929Z,68.27
2023-07-12T22:45:21.627Z,69.03
2023-07-12T22:47:49.210Z,69.09
2023-07-12T22:50:16.336Z,68.42
2023-07-12T22:52:43.364Z,68.50
2023-07-12T22:55:11.636Z,68.04
2023-07-12T22:57:42.749Z,69.47
2023-07-12T23:00:12.752Z,68.91
2023-07-12T23:02:40.859Z,68.22
2023-07-12T23:05:10.085Z,68.88
2023-07-12T23:07:37.026Z,69.19
2023-07-12T23:10:03.883Z,68.87
2023-07-12T23:12:33.568Z,69.35
2023-07-12T23:15:00.180Z,69.36
2023-07-12T23:17:26.845Z,68.61
2023-07-12T23:19:53.412Z,70.00
2023-07-12T23:22:20.108Z,69.43
2023-07-12T23:24:49.782Z,69.79
2023-07-12T23:27:17.917Z,69.19
2023-07-12T23:29:46.306Z,69.48
2023-07-12T23:32:13.671Z,69.54
2023-07-12T23:34:40.391Z,69.46
2023-07-12T23:37:12.062Z,69.94
2023-07-12T23:39:40.165Z,69.99
2023-07-12T23:42:13.208Z,69.92
2023-07-12T23:44:42.389Z,69.46
2023-07-12T23:47:09.770Z,70.13
2023-07-12T23:49:36.464Z,70.49
2023-07-12T23:52:04.863Z,71.02
2023-07-12T23:54:32.141Z,70.43
2023-07-12T23:56:59.868Z,70.45
2023-07-12T23:59:27.832Z,70.73
